sensor_id;sensor_type;location;lat;lon;timestamp;pressure;altitude;pressure_sealevel;temperature;humidity
43820;BME280;67762;52.476;6.046;2023-06-22T00:02:17;101956.88;;;15.99;nan
43820;BME280;67762;52.476;6.046;2023-06-22T00:04:43;101957.03;;;15.97;nan
43820;BME280;67762;52.476;6.046;2023-06-22T00:07:09;101955.53;;;15.95;nan
43820;BME280;67762;52.476;6.046;2023-06-22T00:09:36;101943.91;;;15.94;nan
43820;BME280;67762;52.476;6.046;2023-06-22T00:12:02;101946.13;;;15.91;nan
43820;BME280;67762;52.476;6.046;2023-06-22T00:14:28;101948.31;;;15.87;nan
43820;BME280;67762;52.476;6.046;2023-06-22T00:16:53;101951.34;;;15.84;nan
43820;BME280;67762;52.476;6.046;2023-06-22T00:19:21;101952.69;;;15.80;nan
43820;BME280;67762;52.476;6.046;2023-06-22T00:21:47;101946.31;;;15.73;nan
43820;BME280;67762;52.476;6.046;2023-06-22T00:24:21;101944.97;;;15.69;nan
43820;BME280;67762;52.476;6.046;2023-06-22T00:26:50;101940.09;;;15.64;nan
43820;BME280;67762;52.476;6.046;2023-06-22T00:29:16;101937.75;;;15.61;nan
43820;BME280;67762;52.476;6.046;2023-06-22T00:31:42;101930.72;;;15.60;nan
43820;BME280;67762;52.476;6.046;2023-06-22T00:34:08;101941.28;;;15.62;nan
43820;BME280;67762;52.476;6.046;2023-06-22T00:36:35;101945.81;;;15.61;nan
43820;BME280;67762;52.476;6.046;2023-06-22T00:39:02;101945.31;;;15.58;nan
43820;BME280;67762;52.476;6.046;2023-06-22T00:41:29;101934.91;;;15.55;nan
43820;BME280;67762;52.476;6.046;2023-06-22T00:43:55;101942.28;;;15.53;nan
43820;BME280;67762;52.476;6.046;2023-06-22T00:46:21;101939.94;;;15.50;nan
43820;BME280;67762;52.476;6.046;2023-06-22T00:48:48;101934.56;;;15.50;nan
43820;BME280;67762;52.476;6.046;2023-06-22T00:51:14;101936.44;;;15.49;nan
43820;BME280;67762;52.476;6.046;2023-06-22T00:53:41;101931.06;;;15.49;nan
43820;BME280;67762;52.476;6.046;2023-06-22T00:56:10;101930.03;;;15.50;nan
43820;BME280;67762;52.476;6.046;2023-06-22T00:58:38;101930.88;;;15.51;nan
43820;BME280;67762;52.476;6.046;2023-06-22T01:01:07;101926.50;;;15.50;nan
43820;BME280;67762;52.476;6.046;2023-06-22T01:03:32;101931.41;;;15.46;nan
43820;BME280;67762;52.476;6.046;2023-06-22T01:06:02;101924.63;;;15.42;nan
43820;BME280;67762;52.476;6.046;2023-06-22T01:08:51;101931.19;;;15.40;nan
43820;BME280;67762;52.476;6.046;2023-06-22T01:11:27;101924.28;;;15.37;nan
43820;BME280;67762;52.476;6.046;2023-06-22T01:14:14;101914.72;;;15.35;nan
43820;BME280;67762;52.476;6.046;2023-06-22T01:16:41;101913.69;;;15.36;nan
43820;BME280;67762;52.476;6.046;2023-06-22T01:21:41;101929.81;;;15.44;nan
43820;BME280;67762;52.476;6.046;2023-06-22T01:26:46;101911.34;;;15.41;nan
43820;BME280;67762;52.476;6.046;2023-06-22T01:29:17;101915.91;;;15.32;nan
43820;BME280;67762;52.476;6.046;2023-06-22T01:31:45;101919.06;;;15.36;nan
43820;BME280;67762;52.476;6.046;2023-06-22T01:34:12;101919.06;;;15.36;nan
43820;BME280;67762;52.476;6.046;2023-06-22T01:36:39;101930.00;;;15.34;nan
43820;BME280;67762;52.476;6.046;2023-06-22T01:39:05;101927.31;;;15.34;nan
43820;BME280;67762;52.476;6.046;2023-06-22T01:41:34;101921.75;;;15.36;nan
43820;BME280;67762;52.476;6.046;2023-06-22T01:44:01;101925.81;;;15.40;nan
43820;BME280;67762;52.476;6.046;2023-06-22T01:46:27;101913.53;;;15.45;nan
43820;BME280;67762;52.476;6.046;2023-06-22T01:48:53;101916.56;;;15.50;nan
43820;BME280;67762;52.476;6.046;2023-06-22T01:51:19;101929.69;;;15.53;nan
43820;BME280;67762;52.476;6.046;2023-06-22T01:53:45;101921.81;;;15.52;nan
43820;BME280;67762;52.476;6.046;2023-06-22T01:56:11;101922.47;;;15.54;nan
43820;BME280;67762;52.476;6.046;2023-06-22T01:58:46;101916.56;;;15.50;nan
43820;BME280;67762;52.476;6.046;2023-06-22T02:01:19;101911.53;;;15.47;nan
43820;BME280;67762;52.476;6.046;2023-06-22T02:03:57;101916.88;;;15.39;nan
43820;BME280;67762;52.476;6.046;2023-06-22T02:06:33;101915.91;;;15.32;nan
43820;BME280;67762;52.476;6.046;2023-06-22T02:09:08;101911.69;;;15.30;nan
43820;BME280;67762;52.476;6.046;2023-06-22T02:11:35;101906.13;;;15.31;nan
43820;BME280;67762;52.476;6.046;2023-06-22T02:14:02;101912.69;;;15.29;nan
43820;BME280;67762;52.476;6.046;2023-06-22T02:16:30;101913.03;;;15.26;nan
43820;BME280;67762;52.476;6.046;2023-06-22T02:18:56;101915.22;;;15.22;nan
43820;BME280;67762;52.476;6.046;2023-06-22T02:21:27;101910.34;;;15.17;nan
43820;BME280;67762;52.476;6.046;2023-06-22T02:23:53;101906.28;;;15.13;nan
43820;BME280;67762;52.476;6.046;2023-06-22T02:26:18;101900.59;;;15.08;nan
43820;BME280;67762;52.476;6.046;2023-06-22T02:28:44;101901.09;;;15.04;nan
43820;BME280;67762;52.476;6.046;2023-06-22T02:31:11;101898.06;;;14.99;nan
43820;BME280;67762;52.476;6.046;2023-06-22T02:33:37;101897.38;;;14.97;nan
43820;BME280;67762;52.476;6.046;2023-06-22T02:36:03;101895.88;;;14.94;nan
43820;BME280;67762;52.476;6.046;2023-06-22T02:38:31;101900.59;;;14.92;nan
43820;BME280;67762;52.476;6.046;2023-06-22T02:40:58;101899.22;;;14.88;nan
43820;BME280;67762;52.476;6.046;2023-06-22T02:43:25;101904.78;;;14.87;nan
43820;BME280;67762;52.476;6.046;2023-06-22T02:45:50;101897.88;;;14.84;nan
43820;BME280;67762;52.476;6.046;2023-06-22T02:48:16;101901.56;;;14.83;nan
43820;BME280;67762;52.476;6.046;2023-06-22T02:50:42;101902.06;;;14.79;nan
43820;BME280;67762;52.476;6.046;2023-06-22T02:53:07;101891.84;;;14.74;nan
43820;BME280;67762;52.476;6.046;2023-06-22T02:55:37;101896.50;;;14.72;nan
43820;BME280;67762;52.476;6.046;2023-06-22T02:58:05;101892.97;;;14.72;nan
43820;BME280;67762;52.476;6.046;2023-06-22T03:00:33;101898.19;;;14.73;nan
43820;BME280;67762;52.476;6.046;2023-06-22T03:02:59;101896.38;;;14.74;nan
43820;BME280;67762;52.476;6.046;2023-06-22T03:05:25;101901.75;;;14.74;nan
43820;BME280;67762;52.476;6.046;2023-06-22T03:07:51;101905.41;;;14.73;nan
43820;BME280;67762;52.476;6.046;2023-06-22T03:10:17;101896.19;;;14.75;nan
43820;BME280;67762;52.476;6.046;2023-06-22T03:12:43;101898.88;;;14.91;nan
43820;BME280;67762;52.476;6.046;2023-06-22T03:15:11;101892.53;;;14.92;nan
43820;BME280;67762;52.476;6.046;2023-06-22T03:17:37;101895.22;;;14.92;nan
43820;BME280;67762;52.476;6.046;2023-06-22T03:20:08;101896.72;;;14.95;nan
43820;BME280;67762;52.476;6.046;2023-06-22T03:22:38;101889.16;;;14.90;nan
43820;BME280;67762;52.476;6.046;2023-06-22T03:25:06;101894.22;;;14.93;nan
43820;BME280;67762;52.476;6.046;2023-06-22T03:27:39;101901.94;;;14.96;nan
43820;BME280;67762;52.476;6.046;2023-06-22T03:30:08;101905.28;;;14.98;nan
43820;BME280;67762;52.476;6.046;2023-06-22T03:32:34;101903.28;;;15.00;nan
43820;BME280;67762;52.476;6.046;2023-06-22T03:35:00;101902.09;;;15.03;nan
43820;BME280;67762;52.476;6.046;2023-06-22T03:37:26;101896.72;;;15.03;nan
43820;BME280;67762;52.476;6.046;2023-06-22T03:39:52;101902.28;;;15.01;nan
43820;BME280;67762;52.476;6.046;2023-06-22T03:42:19;101914.69;;;15.10;nan
43820;BME280;67762;52.476;6.046;2023-06-22T03:44:45;101905.81;;;15.18;nan
43820;BME280;67762;52.476;6.046;2023-06-22T03:47:12;101907.00;;;15.23;nan
43820;BME280;67762;52.476;6.046;2023-06-22T03:49:37;101903.44;;;15.31;nan
43820;BME280;67762;52.476;6.046;2023-06-22T03:52:03;101897.06;;;15.32;nan
43820;BME280;67762;52.476;6.046;2023-06-22T03:54:30;101892.69;;;15.31;nan
43820;BME280;67762;52.476;6.046;2023-06-22T03:56:57;101892.88;;;15.30;nan
43820;BME280;67762;52.476;6.046;2023-06-22T03:59:23;101890.34;;;15.28;nan
43820;BME280;67762;52.476;6.046;2023-06-22T04:01:49;101897.06;;;15.32;nan
43820;BME280;67762;52.476;6.046;2023-06-22T04:04:17;101888.66;;;15.43;nan
43820;BME280;67762;52.476;6.046;2023-06-22T04:06:42;101892.03;;;15.53;nan
43820;BME280;67762;52.476;6.046;2023-06-22T04:09:08;101894.53;;;15.63;nan
43820;BME280;67762;52.476;6.046;2023-06-22T04:11:33;101890.97;;;15.78;nan
43820;BME280;67762;52.476;6.046;2023-06-22T04:13:59;101891.59;;;15.89;nan
43820;BME280;67762;52.476;6.046;2023-06-22T04:16:25;101898.00;;;15.96;nan
43820;BME280;67762;52.476;6.046;2023-06-22T04:18:51;101895.81;;;15.99;nan
43820;BME280;67762;52.476;6.046;2023-06-22T04:21:17;101892.72;;;16.02;nan
43820;BME280;67762;52.476;6.046;2023-06-22T04:23:45;101884.16;;;16.07;nan
43820;BME280;67762;52.476;6.046;2023-06-22T04:26:12;101888.97;;;16.19;nan
43820;BME280;67762;52.476;6.046;2023-06-22T04:28:39;101896.31;;;16.33;nan
43820;BME280;67762;52.476;6.046;2023-06-22T04:31:05;101899.94;;;16.49;nan
43820;BME280;67762;52.476;6.046;2023-06-22T04:33:30;101890.78;;;16.66;nan
43820;BME280;67762;52.476;6.046;2023-06-22T04:35:57;101888.28;;;16.87;nan
43820;BME280;67762;52.476;6.046;2023-06-22T04:38:23;101888.28;;;17.10;nan
43820;BME280;67762;52.476;6.046;2023-06-22T04:40:49;101886.72;;;17.30;nan
43820;BME280;67762;52.476;6.046;2023-06-22T04:43:14;101890.59;;;17.50;nan
43820;BME280;67762;52.476;6.046;2023-06-22T04:45:40;101883.84;;;17.69;nan
43820;BME280;67762;52.476;6.046;2023-06-22T04:48:06;101878.09;;;17.86;nan
43820;BME280;67762;52.476;6.046;2023-06-22T04:50:33;101882.09;;;18.05;nan
43820;BME280;67762;52.476;6.046;2023-06-22T04:52:59;101873.97;;;18.20;nan
43820;BME280;67762;52.476;6.046;2023-06-22T04:55:25;101881.88;;;18.36;nan
43820;BME280;67762;52.476;6.046;2023-06-22T04:57:51;101881.38;;;18.47;nan
43820;BME280;67762;52.476;6.046;2023-06-22T05:00:20;101885.75;;;18.62;nan
43820;BME280;67762;52.476;6.046;2023-06-22T05:02:48;101876.94;;;18.75;nan
43820;BME280;67762;52.476;6.046;2023-06-22T05:05:15;101871.47;;;18.90;nan
43820;BME280;67762;52.476;6.046;2023-06-22T05:07:50;101866.41;;;19.01;nan
43820;BME280;67762;52.476;6.046;2023-06-22T05:10:19;101868.81;;;19.17;nan
43820;BME280;67762;52.476;6.046;2023-06-22T05:12:45;101874.16;;;19.32;nan
43820;BME280;67762;52.476;6.046;2023-06-22T05:15:11;101869.88;;;19.44;nan
43820;BME280;67762;52.476;6.046;2023-06-22T05:17:37;101863.94;;;19.55;nan
43820;BME280;67762;52.476;6.046;2023-06-22T05:20:12;101873.81;;;19.69;nan
43820;BME280;67762;52.476;6.046;2023-06-22T05:22:38;101875.78;;;19.82;nan
43820;BME280;67762;52.476;6.046;2023-06-22T05:25:09;101880.00;;;19.91;nan
43820;BME280;67762;52.476;6.046;2023-06-22T05:27:35;101882.13;;;20.02;nan
43820;BME280;67762;52.476;6.046;2023-06-22T05:30:09;101877.56;;;20.03;nan
43820;BME280;67762;52.476;6.046;2023-06-22T05:32:35;101879.44;;;20.02;nan
43820;BME280;67762;52.476;6.046;2023-06-22T05:35:02;101873.84;;;20.10;nan
43820;BME280;67762;52.476;6.046;2023-06-22T05:37:28;101872.00;;;20.17;nan
43820;BME280;67762;52.476;6.046;2023-06-22T05:39:54;101876.44;;;20.25;nan
43820;BME280;67762;52.476;6.046;2023-06-22T05:42:21;101870.22;;;20.31;nan
43820;BME280;67762;52.476;6.046;2023-06-22T05:44:47;101872.75;;;20.39;nan
43820;BME280;67762;52.476;6.046;2023-06-22T05:47:13;101865.25;;;20.41;nan
43820;BME280;67762;52.476;6.046;2023-06-22T05:49:38;101870.06;;;20.46;nan
43820;BME280;67762;52.476;6.046;2023-06-22T05:52:04;101878.44;;;20.57;nan
43820;BME280;67762;52.476;6.046;2023-06-22T05:54:30;101879.91;;;20.60;nan
43820;BME280;67762;52.476;6.046;2023-06-22T05:56:56;101887.47;;;20.71;nan
43820;BME280;67762;52.476;6.046;2023-06-22T05:59:22;101885.00;;;20.82;nan
43820;BME280;67762;52.476;6.046;2023-06-22T06:01:48;101884.56;;;20.92;nan
43820;BME280;67762;52.476;6.046;2023-06-22T06:04:17;101892.31;;;20.95;nan
43820;BME280;67762;52.476;6.046;2023-06-22T06:06:43;101889.63;;;21.08;nan
43820;BME280;67762;52.476;6.046;2023-06-22T06:09:09;101882.53;;;21.20;nan
43820;BME280;67762;52.476;6.046;2023-06-22T06:11:34;101883.78;;;21.31;nan
43820;BME280;67762;52.476;6.046;2023-06-22T06:14:00;101870.63;;;21.47;nan
43820;BME280;67762;52.476;6.046;2023-06-22T06:16:26;101890.03;;;21.64;nan
43820;BME280;67762;52.476;6.046;2023-06-22T06:18:51;101882.47;;;21.86;nan
43820;BME280;67762;52.476;6.046;2023-06-22T06:21:18;101890.22;;;21.95;nan
43820;BME280;67762;52.476;6.046;2023-06-22T06:23:44;101886.84;;;22.06;nan
43820;BME280;67762;52.476;6.046;2023-06-22T06:26:10;101887.28;;;22.03;nan
43820;BME280;67762;52.476;6.046;2023-06-22T06:28:35;101892.09;;;22.01;nan
43820;BME280;67762;52.476;6.046;2023-06-22T06:31:01;101889.16;;;22.03;nan
43820;BME280;67762;52.476;6.046;2023-06-22T06:33:27;101882.25;;;22.07;nan
43820;BME280;67762;52.476;6.046;2023-06-22T06:35:52;101895.34;;;22.23;nan
43820;BME280;67762;52.476;6.046;2023-06-22T06:38:18;101883.22;;;22.26;nan
43820;BME280;67762;52.476;6.046;2023-06-22T06:40:44;101888.66;;;22.26;nan
43820;BME280;67762;52.476;6.046;2023-06-22T06:43:10;101882.19;;;22.20;nan
43820;BME280;67762;52.476;6.046;2023-06-22T06:45:36;101898.50;;;22.20;nan
43820;BME280;67762;52.476;6.046;2023-06-22T06:48:01;101884.47;;;22.23;nan
43820;BME280;67762;52.476;6.046;2023-06-22T06:50:27;101877.75;;;22.32;nan
43820;BME280;67762;52.476;6.046;2023-06-22T06:52:53;101875.81;;;22.46;nan
43820;BME280;67762;52.476;6.046;2023-06-22T06:55:19;101876.94;;;22.63;nan
43820;BME280;67762;52.476;6.046;2023-06-22T06:57:45;101875.41;;;22.80;nan
43820;BME280;67762;52.476;6.046;2023-06-22T07:00:14;101864.22;;;22.95;nan
43820;BME280;67762;52.476;6.046;2023-06-22T07:02:44;101865.66;;;22.97;nan
43820;BME280;67762;52.476;6.046;2023-06-22T07:05:11;101875.28;;;23.00;nan
43820;BME280;67762;52.476;6.046;2023-06-22T07:07:38;101867.28;;;23.05;nan
43820;BME280;67762;52.476;6.046;2023-06-22T07:10:05;101863.03;;;23.15;nan
43820;BME280;67762;52.476;6.046;2023-06-22T07:12:31;101872.41;;;23.19;nan
43820;BME280;67762;52.476;6.046;2023-06-22T07:15:03;101858.47;;;23.34;nan
43820;BME280;67762;52.476;6.046;2023-06-22T07:17:30;101856.94;;;23.45;nan
43820;BME280;67762;52.476;6.046;2023-06-22T07:19:55;101856.94;;;23.45;nan
43820;BME280;67762;52.476;6.046;2023-06-22T07:22:21;101847.13;;;23.37;nan
43820;BME280;67762;52.476;6.046;2023-06-22T07:24:47;101854.06;;;23.33;nan
43820;BME280;67762;52.476;6.046;2023-06-22T07:27:12;101840.69;;;23.56;nan
43820;BME280;67762;52.476;6.046;2023-06-22T07:29:38;101844.59;;;23.60;nan
43820;BME280;67762;52.476;6.046;2023-06-22T07:32:06;101838.16;;;23.55;nan
43820;BME280;67762;52.476;6.046;2023-06-22T07:34:32;101836.97;;;23.69;nan
43820;BME280;67762;52.476;6.046;2023-06-22T07:36:59;101838.19;;;23.73;nan
43820;BME280;67762;52.476;6.046;2023-06-22T07:39:24;101830.84;;;23.73;nan
43820;BME280;67762;52.476;6.046;2023-06-22T07:41:52;101831.84;;;23.79;nan
43820;BME280;67762;52.476;6.046;2023-06-22T07:44:17;101828.22;;;23.85;nan
43820;BME280;67762;52.476;6.046;2023-06-22T07:46:43;101825.31;;;23.98;nan
43820;BME280;67762;52.476;6.046;2023-06-22T07:49:09;101832.38;;;24.24;nan
43820;BME280;67762;52.476;6.046;2023-06-22T07:51:34;101836.75;;;24.25;nan
43820;BME280;67762;52.476;6.046;2023-06-22T07:54:01;101828.88;;;24.47;nan
43820;BME280;67762;52.476;6.046;2023-06-22T07:56:27;101833.38;;;24.71;nan
43820;BME280;67762;52.476;6.046;2023-06-22T07:58:52;101835.22;;;24.88;nan
43820;BME280;67762;52.476;6.046;2023-06-22T08:01:19;101821.22;;;24.85;nan
43820;BME280;67762;52.476;6.046;2023-06-22T08:03:49;101817.53;;;24.79;nan
43820;BME280;67762;52.476;6.046;2023-06-22T08:06:15;101817.13;;;24.76;nan
43820;BME280;67762;52.476;6.046;2023-06-22T08:08:42;101816.22;;;24.82;nan
43820;BME280;67762;52.476;6.046;2023-06-22T08:11:09;101817.69;;;24.96;nan
43820;BME280;67762;52.476;6.046;2023-06-22T08:13:34;101802.47;;;25.00;nan
43820;BME280;67762;52.476;6.046;2023-06-22T08:16:00;101806.88;;;25.01;nan
43820;BME280;67762;52.476;6.046;2023-06-22T08:18:26;101808.69;;;25.07;nan
43820;BME280;67762;52.476;6.046;2023-06-22T08:20:52;101801.41;;;25.24;nan
43820;BME280;67762;52.476;6.046;2023-06-22T08:23:18;101811.28;;;25.25;nan
43820;BME280;67762;52.476;6.046;2023-06-22T08:25:43;101801.19;;;25.26;nan
43820;BME280;67762;52.476;6.046;2023-06-22T08:28:09;101814.84;;;25.26;nan
43820;BME280;67762;52.476;6.046;2023-06-22T08:30:35;101802.25;;;25.36;nan
43820;BME280;67762;52.476;6.046;2023-06-22T08:33:00;101805.97;;;25.53;nan
43820;BME280;67762;52.476;6.046;2023-06-22T08:35:26;101797.63;;;25.60;nan
43820;BME280;67762;52.476;6.046;2023-06-22T08:37:52;101801.75;;;25.74;nan
43820;BME280;67762;52.476;6.046;2023-06-22T08:40:20;101780.69;;;25.86;nan
43820;BME280;67762;52.476;6.046;2023-06-22T08:42:46;101793.03;;;25.89;nan
43820;BME280;67762;52.476;6.046;2023-06-22T08:45:13;101791.31;;;26.11;nan
43820;BME280;67762;52.476;6.046;2023-06-22T08:47:40;101779.78;;;26.21;nan
43820;BME280;67762;52.476;6.046;2023-06-22T08:50:07;101772.41;;;26.21;nan
43820;BME280;67762;52.476;6.046;2023-06-22T08:52:34;101772.41;;;26.21;nan
43820;BME280;67762;52.476;6.046;2023-06-22T08:55:00;101766.16;;;25.97;nan
43820;BME280;67762;52.476;6.046;2023-06-22T08:57:27;101758.03;;;26.02;nan
43820;BME280;67762;52.476;6.046;2023-06-22T08:59:53;101760.84;;;26.19;nan
43820;BME280;67762;52.476;6.046;2023-06-22T09:02:19;101753.88;;;26.40;nan
43820;BME280;67762;52.476;6.046;2023-06-22T09:04:47;101749.81;;;26.76;nan
43820;BME280;67762;52.476;6.046;2023-06-22T09:07:14;101734.47;;;27.08;nan
43820;BME280;67762;52.476;6.046;2023-06-22T09:09:39;101742.53;;;27.14;nan
43820;BME280;67762;52.476;6.046;2023-06-22T09:12:05;101740.75;;;27.25;nan
43820;BME280;67762;52.476;6.046;2023-06-22T09:14:31;101730.19;;;27.34;nan
43820;BME280;67762;52.476;6.046;2023-06-22T09:16:57;101741.53;;;27.20;nan
43820;BME280;67762;52.476;6.046;2023-06-22T09:19:22;101740.81;;;27.30;nan
43820;BME280;67762;52.476;6.046;2023-06-22T09:21:48;101724.19;;;27.15;nan
43820;BME280;67762;52.476;6.046;2023-06-22T09:24:13;101734.63;;;27.18;nan
43820;BME280;67762;52.476;6.046;2023-06-22T09:26:39;101737.63;;;27.16;nan
43820;BME280;67762;52.476;6.046;2023-06-22T09:29:05;101736.94;;;27.26;nan
43820;BME280;67762;52.476;6.046;2023-06-22T09:31:31;101740.75;;;27.25;nan
43820;BME280;67762;52.476;6.046;2023-06-22T09:33:57;101737.75;;;27.43;nan
43820;BME280;67762;52.476;6.046;2023-06-22T09:36:23;101741.06;;;27.88;nan
43820;BME280;67762;52.476;6.046;2023-06-22T09:38:49;101741.16;;;28.47;nan
43820;BME280;67762;52.476;6.046;2023-06-22T09:41:21;101736.06;;;28.92;nan
43820;BME280;67762;52.476;6.046;2023-06-22T09:43:47;101747.00;;;29.24;nan
43820;BME280;67762;52.476;6.046;2023-06-22T09:46:16;101739.75;;;29.55;nan
43820;BME280;67762;52.476;6.046;2023-06-22T09:48:42;101734.88;;;29.77;nan
43820;BME280;67762;52.476;6.046;2023-06-22T09:51:08;101730.44;;;29.61;nan
43820;BME280;67762;52.476;6.046;2023-06-22T09:53:33;101730.31;;;29.41;nan
43820;BME280;67762;52.476;6.046;2023-06-22T09:56:01;101725.72;;;29.51;nan
43820;BME280;67762;52.476;6.046;2023-06-22T09:58:27;101711.66;;;29.43;nan
43820;BME280;67762;52.476;6.046;2023-06-22T10:00:53;101712.44;;;28.96;nan
43820;BME280;67762;52.476;6.046;2023-06-22T10:03:20;101705.84;;;28.61;nan
43820;BME280;67762;52.476;6.046;2023-06-22T10:05:46;101703.63;;;28.26;nan
43820;BME280;67762;52.476;6.046;2023-06-22T10:08:11;101699.09;;;28.10;nan
43820;BME280;67762;52.476;6.046;2023-06-22T10:10:37;101702.38;;;28.12;nan
43820;BME280;67762;52.476;6.046;2023-06-22T10:13:08;101713.31;;;28.07;nan
43820;BME280;67762;52.476;6.046;2023-06-22T10:15:38;101708.06;;;28.05;nan
43820;BME280;67762;52.476;6.046;2023-06-22T10:18:04;101708.94;;;28.11;nan
43820;BME280;67762;52.476;6.046;2023-06-22T10:20:30;101703.53;;;27.94;nan
43820;BME280;67762;52.476;6.046;2023-06-22T10:22:55;101703.22;;;27.91;nan
43820;BME280;67762;52.476;6.046;2023-06-22T10:25:21;101706.59;;;27.71;nan
43820;BME280;67762;52.476;6.046;2023-06-22T10:27:47;101710.78;;;27.78;nan
43820;BME280;67762;52.476;6.046;2023-06-22T10:30:13;101704.56;;;27.88;nan
43820;BME280;67762;52.476;6.046;2023-06-22T10:32:40;101710.63;;;28.12;nan
43820;BME280;67762;52.476;6.046;2023-06-22T10:35:06;101690.78;;;28.31;nan
43820;BME280;67762;52.476;6.046;2023-06-22T10:37:32;101690.41;;;28.23;nan
43820;BME280;67762;52.476;6.046;2023-06-22T10:39:58;101694.63;;;28.04;nan
43820;BME280;67762;52.476;6.046;2023-06-22T10:42:23;101693.84;;;27.86;nan
43820;BME280;67762;52.476;6.046;2023-06-22T10:44:49;101699.94;;;27.67;nan
43820;BME280;67762;52.476;6.046;2023-06-22T10:47:15;101701.28;;;27.43;nan
43820;BME280;67762;52.476;6.046;2023-06-22T10:49:41;101704.44;;;27.35;nan
43820;BME280;67762;52.476;6.046;2023-06-22T10:52:08;101703.09;;;27.37;nan
43820;BME280;67762;52.476;6.046;2023-06-22T10:54:34;101708.75;;;27.30;nan
43820;BME280;67762;52.476;6.046;2023-06-22T10:57:01;101717.59;;;27.16;nan
43820;BME280;67762;52.476;6.046;2023-06-22T10:59:27;101710.31;;;27.05;nan
43820;BME280;67762;52.476;6.046;2023-06-22T11:01:55;101715.00;;;26.88;nan
43820;BME280;67762;52.476;6.046;2023-06-22T11:04:21;101712.78;;;26.85;nan
43820;BME280;67762;52.476;6.046;2023-06-22T11:06:48;101709.94;;;26.80;nan
43820;BME280;67762;52.476;6.046;2023-06-22T11:09:14;101710.66;;;26.75;nan
43820;BME280;67762;52.476;6.046;2023-06-22T11:11:44;101712.78;;;26.85;nan
43820;BME280;67762;52.476;6.046;2023-06-22T11:14:10;101704.19;;;26.98;nan
43820;BME280;67762;52.476;6.046;2023-06-22T11:16:36;101707.69;;;26.93;nan
43820;BME280;67762;52.476;6.046;2023-06-22T11:19:02;101698.88;;;26.91;nan
43820;BME280;67762;52.476;6.046;2023-06-22T11:21:28;101713.06;;;27.05;nan
43820;BME280;67762;52.476;6.046;2023-06-22T11:23:54;101708.47;;;27.10;nan
43820;BME280;67762;52.476;6.046;2023-06-22T11:26:20;101710.25;;;27.00;nan
43820;BME280;67762;52.476;6.046;2023-06-22T11:28:46;101708.97;;;27.07;nan
43820;BME280;67762;52.476;6.046;2023-06-22T11:31:12;101700.03;;;27.12;nan
43820;BME280;67762;52.476;6.046;2023-06-22T11:33:38;101698.28;;;27.06;nan
43820;BME280;67762;52.476;6.046;2023-06-22T11:36:03;101697.13;;;27.02;nan
43820;BME280;67762;52.476;6.046;2023-06-22T11:38:29;101694.28;;;27.13;nan
43820;BME280;67762;52.476;6.046;2023-06-22T11:40:58;101693.72;;;27.11;nan
43820;BME280;67762;52.476;6.046;2023-06-22T11:43:25;101694.53;;;27.12;nan
43820;BME280;67762;52.476;6.046;2023-06-22T11:45:50;101688.66;;;27.03;nan
43820;BME280;67762;52.476;6.046;2023-06-22T11:48:16;101669.09;;;26.95;nan
43820;BME280;67762;52.476;6.046;2023-06-22T11:50:42;101671.75;;;26.90;nan
43820;BME280;67762;52.476;6.046;2023-06-22T11:53:08;101665.28;;;26.96;nan
43820;BME280;67762;52.476;6.046;2023-06-22T11:55:33;101666.56;;;27.10;nan
43820;BME280;67762;52.476;6.046;2023-06-22T11:57:59;101661.16;;;27.15;nan
43820;BME280;67762;52.476;6.046;2023-06-22T12:00:28;101649.41;;;26.98;nan
43820;BME280;67762;52.476;6.046;2023-06-22T12:02:54;101649.91;;;26.95;nan
43820;BME280;67762;52.476;6.046;2023-06-22T12:05:20;101652.34;;;27.13;nan
43820;BME280;67762;52.476;6.046;2023-06-22T12:07:46;101652.81;;;27.26;nan
43820;BME280;67762;52.476;6.046;2023-06-22T12:10:12;101638.72;;;27.40;nan
43820;BME280;67762;52.476;6.046;2023-06-22T12:12:38;101633.38;;;27.28;nan
43820;BME280;67762;52.476;6.046;2023-06-22T12:15:04;101630.81;;;27.21;nan
43820;BME280;67762;52.476;6.046;2023-06-22T12:17:31;101634.06;;;27.18;nan
43820;BME280;67762;52.476;6.046;2023-06-22T12:19:56;101624.03;;;27.07;nan
43820;BME280;67762;52.476;6.046;2023-06-22T12:22:22;101633.09;;;27.08;nan
43820;BME280;67762;52.476;6.046;2023-06-22T12:24:48;101628.72;;;27.07;nan
43820;BME280;67762;52.476;6.046;2023-06-22T12:27:14;101630.06;;;27.04;nan
43820;BME280;67762;52.476;6.046;2023-06-22T12:29:41;101632.91;;;26.93;nan
43820;BME280;67762;52.476;6.046;2023-06-22T12:32:07;101636.72;;;26.75;nan
43820;BME280;67762;52.476;6.046;2023-06-22T12:34:33;101630.59;;;26.68;nan
43820;BME280;67762;52.476;6.046;2023-06-22T12:36:58;101623.53;;;26.72;nan
43820;BME280;67762;52.476;6.046;2023-06-22T12:39:24;101619.56;;;26.80;nan
43820;BME280;67762;52.476;6.046;2023-06-22T12:41:50;101622.06;;;26.81;nan
43820;BME280;67762;52.476;6.046;2023-06-22T12:44:16;101610.75;;;26.78;nan
43820;BME280;67762;52.476;6.046;2023-06-22T12:46:41;101618.28;;;26.49;nan
43820;BME280;67762;52.476;6.046;2023-06-22T12:49:07;101623.91;;;26.26;nan
43820;BME280;67762;52.476;6.046;2023-06-22T12:51:32;101618.59;;;26.19;nan
43820;BME280;67762;52.476;6.046;2023-06-22T12:53:59;101610.31;;;26.14;nan
43820;BME280;67762;52.476;6.046;2023-06-22T12:56:24;101607.59;;;26.02;nan
43820;BME280;67762;52.476;6.046;2023-06-22T12:58:50;101603.13;;;25.96;nan
43820;BME280;67762;52.476;6.046;2023-06-22T13:01:16;101603.63;;;25.93;nan
43820;BME280;67762;52.476;6.046;2023-06-22T13:03:43;101608.91;;;25.83;nan
43820;BME280;67762;52.476;6.046;2023-06-22T13:06:09;101599.78;;;25.78;nan
43820;BME280;67762;52.476;6.046;2023-06-22T13:08:34;101596.72;;;25.74;nan
43820;BME280;67762;52.476;6.046;2023-06-22T13:11:01;101593.53;;;25.66;nan
43820;BME280;67762;52.476;6.046;2023-06-22T13:13:26;101598.09;;;25.60;nan